• Join FlightAware (Why Join?)
  • Login
  • US Flag 
01:12PM EDT


 

Airport Tracker/Info


-or-


 

Live Flight TrackerFlight Track Log ✈ SWA407 ✈ 26-Apr-2013 ✈ KATL - KSFO

Flight Track Log - Related Links

Times and Time Zones

All times are in EDT time to prevent confusion due to time zone crossing. See the SWA407 flight status page for this flight to view local times or setup timezone preferences in your user account.

Time Position Orientation Groundspeed Altitude Reporting Facility
EDT Latitude Longitude Course Direction KTS MPH feet Rate Location/Type
05:14PM 33.6497 -84.3733 63° Northeast 444 511 2,600  Level Atlanta Center
05:15PM 33.6667 -84.3333 63° Northeast 223 257 4,000 2,820 Climbing Atlanta TRACON
05:17PM 33.7833 -84.2833 20° North 287 330 9,900 2,640 Climbing Atlanta TRACON
05:19PM 33.8142 -84.5314 279° West 331 381 15,800 2,400 Climbing Atlanta Center
05:20PM 33.8136 -84.6364 270° West 326 375 18,300 2,400 Climbing Atlanta Center
05:21PM 33.8089 -84.7489 267° West 326 375 20,600 2,280 Climbing Atlanta Center
05:22PM 33.8058 -84.8839 268° West 349 402 22,900 2,100 Climbing Atlanta Center
05:23PM 33.7947 -85.0061 264° West 369 425 24,800 1,620 Climbing Atlanta Center
05:24PM 33.7789 -85.1311 261° West 380 437 26,200 1,080 Climbing Atlanta Center
05:25PM 33.7756 -85.2733 268° West 409 471 27,000 1,200 Climbing Atlanta Center
05:26PM 33.7992 -85.4111 282° West 428 493 28,600 1,680 Climbing Atlanta Center
05:27PM 33.8206 -85.5342 282° West 423 487 30,400 1,800 Climbing Atlanta Center
05:28PM 33.8461 -85.6722 283° West 423 487 32,300 2,100 Climbing Atlanta Center
05:29PM 33.8842 -85.7928 291° West 407 468 34,600 1,800 Climbing Atlanta Center
05:30PM 33.9200 -85.9064 291° West 386 444 35,900 660 Climbing Atlanta Center
05:31PM 33.9578 -86.0247 291° West 380 437 36,000  Climbing Atlanta Center
05:32PM 33.9956 -86.1411 291° West 380 437 36,000  Level Atlanta Center
05:33PM 34.0267 -86.2619 287° West 380 437 36,000  Level Atlanta Center
05:34PM 34.0600 -86.3808 289° West 380 437 36,000  Level Atlanta Center
05:35PM 34.0933 -86.4994 289° West 375 432 36,000  Level Atlanta Center
05:36PM 34.1261 -86.6183 288° West 375 432 36,000  Level Atlanta Center
05:37PM 34.1614 -86.7350 290° West 369 425 36,000  Level Atlanta Center
05:37PM 34.1711 -86.7797 285° West 369 425 36,000  Level Memphis Center
05:38PM 34.2058 -86.9014 289° West 369 425 36,000  Level Memphis Center
05:39PM 34.2361 -87.0158 288° West 387 445 36,000  Level Memphis Center
05:40PM 34.2686 -87.1400 288° West 392 451 36,000  Level Memphis Center
05:41PM 34.3094 -87.2694 291° West 384 442 36,000  Level Memphis Center
05:42PM 34.3417 -87.3939 287° West 377 434 36,000  Level Memphis Center
05:43PM 34.3739 -87.5161 288° West 382 440 36,000  Level Memphis Center
05:44PM 34.4033 -87.6158 290° West 382 440 36,000  Level Memphis Center
05:45PM 34.4350 -87.7408 287° West 382 440 36,000 -60 Level Memphis Center
05:46PM 34.4778 -87.8906 289° West 382 440 35,900  Descending Memphis Center
05:47PM 34.5156 -88.0131 291° West 382 440 36,000  Climbing Memphis Center
05:48PM 34.5431 -88.1408 285° West 387 445 36,000  Level Memphis Center
05:49PM 34.5744 -88.2636 287° West 400 460 36,000  Level Memphis Center
05:50PM 34.6078 -88.3889 288° West 400 460 36,000  Level Memphis Center
05:51PM 34.6431 -88.5117 289° West 394 453 36,000  Level Memphis Center
05:52PM 34.6742 -88.6400 286° West 394 453 36,000  Level Memphis Center
05:53PM 34.7072 -88.7731 287° West 400 460 36,000  Level Memphis Center
05:54PM 34.7422 -88.8989 289° West 400 460 36,000  Level Memphis Center
05:55PM 34.7750 -89.0297 287° West 400 460 36,000  Level Memphis Center
05:56PM 34.8075 -89.1608 287° West 400 460 36,000  Level Memphis Center
05:57PM 34.8419 -89.2894 288° West 400 460 36,000  Level Memphis Center
05:58PM 34.8767 -89.4306 287° West 400 460 36,000  Level Memphis Center
05:59PM 34.9108 -89.5569 288° West 395 455 36,000  Level Memphis Center
06:00PM 34.9386 -89.6606 288° West 401 461 36,000  Level Memphis Center
06:01PM 34.9769 -89.8097 287° West 412 474 36,000  Level Memphis Center
06:02PM 35.0086 -89.9414 286° West 418 481 36,000  Level Memphis Center
06:03PM 35.0425 -90.0653 289° West 400 460 36,000  Level Memphis Center
06:04PM 35.0822 -90.1897 291° West 394 453 36,000  Level Memphis Center
06:05PM 35.1222 -90.3139 292° West 389 448 36,000  Level Memphis Center
06:06PM 35.1639 -90.4486 291° West 389 448 36,000  Level Memphis Center
06:07PM 35.2011 -90.5731 290° West 389 448 36,000  Level Memphis Center
06:08PM 35.2406 -90.6978 291° West 394 453 36,000  Level Memphis Center
06:09PM 35.2797 -90.8200 291° West 394 453 36,000  Level Memphis Center
06:10PM 35.3167 -90.9500 289° West 394 453 36,000  Level Memphis Center
06:11PM 35.3578 -91.0700 293° West 389 448 36,000  Level Memphis Center
06:12PM 35.3925 -91.1900 290° West 384 442 36,000  Level Memphis Center
06:13PM 35.4333 -91.3153 292° West 393 452 36,000  Level Memphis Center
06:14PM 35.4700 -91.4356 291° West 393 452 36,000  Level Memphis Center
06:15PM 35.5064 -91.5558 290° West 386 444 36,000  Level Memphis Center
06:16PM 35.5406 -91.6786 289° West 380 437 36,000  Level Memphis Center
06:17PM 35.5789 -91.7992 291° West 380 437 36,000  Level Memphis Center
06:18PM 35.5858 -91.9297 274° West 380 437 36,000  Level Memphis Center
06:19PM 35.5883 -92.0572 271° West 380 437 36,000  Level Memphis Center
06:20PM 35.6303 -92.1783 293° West 375 432 36,000  Level Memphis Center
06:21PM 35.6806 -92.2994 297° West 387 445 36,000  Level Memphis Center
06:22PM 35.7350 -92.4133 301° West 387 445 36,000  Level Memphis Center
06:23PM 35.7917 -92.5247 302° West 387 445 36,000  Level Memphis Center
06:24PM 35.8442 -92.6258 303° West 387 445 36,000  Level Memphis Center
06:25PM 35.8961 -92.7375 300° West 387 445 36,000  Level Memphis Center
06:26PM 35.9483 -92.8492 300° West 381 438 36,000  Level Memphis Center
06:27PM 36.0000 -92.9636 299° West 381 438 36,000  Level Memphis Center
06:28PM 36.0539 -93.0758 301° West 381 438 36,000  Level Memphis Center
06:29PM 36.1078 -93.1856 301° West 381 438 36,000  Level Memphis Center
06:30PM 36.1614 -93.3056 299° West 387 445 36,000  Level Memphis Center
06:31PM 36.1958 -93.4278 289° West 382 440 36,000  Level Memphis Center
06:32PM 36.2197 -93.5547 283° West 382 440 36,000  Level Memphis Center
06:33PM 36.2436 -93.6817 283° West 377 434 36,000  Level Memphis Center
06:34PM 36.2689 -93.8217 283° West 377 434 36,000  Level Memphis Center
06:35PM 36.2967 -93.9492 285° West 377 434 36,000  Level Memphis Center
06:36PM 36.3200 -94.0764 283° West 377 434 36,000  Level Memphis Center
06:38PM 36.3722 -94.3261 285° West 379 436 36,000  Level Kansas City Center
06:39PM 36.3950 -94.4533 283° West 376 433 36,000  Level Kansas City Center
06:40PM 36.4189 -94.5789 283° West 376 433 36,000  Level Kansas City Center
06:41PM 36.4436 -94.7056 284° West 376 433 36,000  Level Kansas City Center
06:42PM 36.4681 -94.8311 284° West 375 432 36,000  Level Kansas City Center
06:43PM 36.5208 -94.9747 295° West 379 436 36,000  Level Kansas City Center
06:45PM 36.5644 -95.0936 295° West 380 437 36,000 180 Level Kansas City Center
06:46PM 36.6083 -95.2119 295° West 379 436 36,400 720 Climbing Kansas City Center
06:47PM 36.6528 -95.3328 295° West 386 444 37,500 720 Climbing Kansas City Center
06:48PM 36.6719 -95.4589 281° West 375 432 38,000 240 Climbing Kansas City Center
06:49PM 36.6978 -95.6089 282° West 372 428 38,000  Level Kansas City Center
06:50PM 36.7197 -95.7344 282° West 373 429 38,000  Level Kansas City Center
06:51PM 36.7419 -95.8622 282° West 377 434 38,000  Level Kansas City Center
06:52PM 36.7625 -95.9892 281° West 374 430 38,000  Level Kansas City Center
06:53PM 36.7844 -96.1161 282° West 376 433 38,000  Level Kansas City Center
06:54PM 36.8053 -96.2422 282° West 373 429 38,000  Level Kansas City Center
06:55PM 36.8314 -96.3947 282° West 373 429 38,000  Level Kansas City Center
06:56PM 36.8519 -96.5225 281° West 375 432 38,000  Level Kansas City Center
06:57PM 36.8739 -96.6517 282° West 378 435 38,000  Level Kansas City Center
06:58PM 36.8953 -96.7842 281° West 383 441 38,000  Level Kansas City Center
06:59PM 36.9158 -96.9147 281° West 384 442 38,000  Level Kansas City Center
07:00PM 36.9375 -97.0461 282° West 385 443 38,000  Level Kansas City Center
07:01PM 36.9578 -97.1800 281° West 389 448 38,000  Level Kansas City Center
07:02PM 36.9786 -97.3142 281° West 392 451 38,000  Level Kansas City Center
07:03PM 37.0031 -97.4697 281° West 384 442 38,000  Level Kansas City Center
07:04PM 37.0231 -97.6003 281° West 382 440 38,000  Level Kansas City Center
07:05PM 37.0436 -97.7311 281° West 382 440 38,000  Level Kansas City Center
07:06PM 37.0631 -97.8631 281° West 384 442 38,000  Level Kansas City Center
07:07PM 37.0836 -97.9969 281° West 387 445 38,000  Level Kansas City Center
07:08PM 37.1031 -98.1272 281° West 384 442 38,000  Level Kansas City Center
07:09PM 37.1214 -98.2583 280° West 382 440 38,000  Level Kansas City Center
07:10PM 37.1453 -98.4153 281° West 382 440 38,000  Level Kansas City Center
07:11PM 37.1642 -98.5497 280° West 386 444 38,000  Level Kansas City Center
07:12PM 37.1844 -98.6817 281° West 387 445 38,100  Climbing Kansas City Center
07:13PM 37.2017 -98.8114 280° West 380 437 38,000 -60 Descending Kansas City Center
07:14PM 37.2217 -98.9408 281° West 378 435 38,000  Level Kansas City Center
07:15PM 37.2386 -99.0694 279° West 377 434 38,000  Level Kansas City Center
07:16PM 37.2583 -99.2075 280° West 375 432 38,000  Level Kansas City Center
07:18PM 37.2767 -99.3372 280° West 377 434 38,000  Level Kansas City Center
07:19PM 37.2964 -99.4792 280° West 381 438 38,100  Climbing Kansas City Center
07:20PM 37.3161 -99.6256 280° West 381 438 38,000 -60 Descending Kansas City Center
07:21PM 37.3339 -99.7514 280° West 382 440 38,000  Level Kansas City Center
07:22PM 37.3506 -99.8783 279° West 384 442 38,000  Level Kansas City Center
07:23PM 37.3706 -100.0244 280° West 381 438 38,100  Climbing Kansas City Center
07:24PM 37.3875 -100.1517 280° West 384 442 38,000  Descending Kansas City Center
07:25PM 37.4078 -100.3006 280° West 386 444 38,100  Climbing Kansas City Center
07:26PM 37.4239 -100.4289 279° West 388 447 38,000  Descending Kansas City Center
07:27PM 37.4433 -100.5778 279° West 386 444 38,100  Climbing Kansas City Center
07:28PM 37.4597 -100.7067 279° West 387 445 38,000 -60 Descending Kansas City Center
07:29PM 37.4758 -100.8361 279° West 388 447 38,000  Level Kansas City Center
07:30PM 37.4939 -100.9897 278° West 391 450 38,000  Level Kansas City Center
07:31PM 37.5094 -101.1206 279° West 390 449 38,000  Level Kansas City Center
07:32PM 37.5264 -101.2492 279° West 389 448 38,000  Level Kansas City Center
07:33PM 37.5447 -101.4017 279° West 393 452 38,000  Level Kansas City Center
07:34PM 37.5608 -101.5322 279° West 393 452 38,000  Level Kansas City Center
07:35PM 37.5783 -101.6833 278° West 391 450 38,000  Level Kansas City Center
07:36PM 37.5933 -101.8139 278° West 392 451 38,000  Level Kansas City Center
07:37PM 37.6086 -101.9425 279° West 390 449 38,000  Level Kansas City Center
07:38PM 37.6253 -102.0914 278° West 385 443 38,000  Level Kansas City Center
07:39PM 37.6403 -102.2211 278° West 388 447 38,000  Level Kansas City Center
07:40PM 37.6603 -102.3936 278° West 389 448 38,000  Level Denver Center
07:41PM 37.6758 -102.5394 278° West 392 451 38,000  Level Denver Center
07:42PM 37.6919 -102.6703 279° West 395 455 38,000  Level Denver Center
07:43PM 37.7089 -102.8319 278° West 396 456 38,000  Level Denver Center
07:44PM 37.7228 -102.9592 278° West 404 465 38,000  Level Denver Center
07:46PM 37.7403 -103.1158 278° West 406 467 38,000  Level Denver Center
07:47PM 37.7536 -103.2519 277° West 409 471 38,100  Climbing Denver Center
07:48PM 37.7694 -103.4100 277° West 408 470 38,000  Descending Denver Center
07:49PM 37.7839 -103.5447 278° West 406 467 38,100  Climbing Denver Center
07:50PM 37.8000 -103.7017 277° West 406 467 38,000 -60 Descending Denver Center
07:51PM 37.8122 -103.8361 277° West 405 466 38,000  Level Denver Center
07:52PM 37.8278 -103.9906 277° West 402 463 38,000  Level Denver Center
07:53PM 37.8406 -104.1236 277° West 402 463 38,100  Climbing Denver Center
07:54PM 37.8556 -104.2786 277° West 400 460 38,100  Level Denver Center
07:55PM 37.8689 -104.4117 277° West 401 461 38,100 -60 Level Denver Center
07:56PM 37.8828 -104.5683 276° West 402 463 38,000 -60 Descending Denver Center
07:57PM 37.8947 -104.7039 276° West 406 467 38,000  Level Denver Center
07:59PM 37.9233 -105.0081 277° West 412 474 38,000  Level Denver Center
08:00PM 37.9364 -105.1536 277° West 413 475 38,000  Level Denver Center
08:01PM 37.9500 -105.2994 277° West 411 473 38,100  Climbing Denver Center
08:02PM 37.9628 -105.4606 276° West 413 475 38,000  Descending Denver Center
08:03PM 37.9744 -105.5994 276° West 414 476 38,100  Climbing Denver Center
08:04PM 37.9892 -105.7597 277° West 411 473 38,000 -60 Descending Denver Center
08:05PM 37.9997 -105.8992 276° West 414 476 38,000  Level Denver Center
08:06PM 38.0106 -106.0375 276° West 413 475 38,000  Level Denver Center
08:07PM 38.0231 -106.1994 276° West 413 475 38,000  Level Denver Center
08:08PM 38.0328 -106.3386 275° West 414 476 38,000  Level Denver Center
08:09PM 38.0456 -106.5008 276° West 416 479 38,000  Level Denver Center
08:10PM 38.0567 -106.6436 276° West 417 480 38,000  Level Denver Center
08:11PM 38.0697 -106.8069 276° West 415 478 38,000  Level Denver Center
08:12PM 38.0800 -106.9478 275° West 418 481 38,000  Level Denver Center
08:13PM 38.0900 -107.0969 275° West 418 481 38,000  Level Denver Center
08:14PM 38.1008 -107.2544 275° West 421 484 38,000  Level Denver Center
08:15PM 38.1128 -107.4194 275° West 421 484 38,000  Level Denver Center
08:17PM 38.1219 -107.5608 275° West 419 482 38,000  Level Denver Center
08:18PM 38.1314 -107.7033 275° West 421 484 38,000  Level Denver Center
08:19PM 38.1425 -107.8703 275° West 424 488 38,000  Level Denver Center
08:20PM 38.1511 -108.0161 274° West 430 495 38,000  Level Denver Center
08:21PM 38.1617 -108.1856 275° West 430 495 38,000  Level Denver Center
08:22PM 38.1706 -108.3306 275° West 430 495 38,000  Level Denver Center
08:23PM 38.1819 -108.5022 275° West 434 499 38,100  Climbing Denver Center
08:24PM 38.1894 -108.6464 274° West 429 494 38,000 -60 Descending Denver Center
08:25PM 38.1994 -108.8169 274° West 432 497 38,000  Level Denver Center
08:26PM 38.2069 -108.9611 274° West 429 494 38,000  Level Denver Center
08:27PM 38.2156 -109.1081 274° West 433 498 38,100  Climbing Denver Center
08:28PM 38.2242 -109.2786 274° West 431 496 38,000 -60 Descending Denver Center
08:29PM 38.2317 -109.4264 274° West 436 502 38,000  Level Denver Center
08:30PM 38.2406 -109.5986 274° West 437 503 38,000  Level Denver Center
08:31PM 38.2475 -109.7469 273° West 439 505 38,100  Climbing Denver Center
08:32PM 38.2564 -109.9203 274° West 439 505 38,000 -60 Descending Denver Center
08:33PM 38.2625 -110.0681 273° West 440 506 38,000  Level Denver Center
08:34PM 38.2694 -110.2164 273° West 439 505 38,000  Level Denver Center
08:35PM 38.2775 -110.3908 273° West 442 509 38,000  Level Denver Center
08:36PM 38.2847 -110.5903 273° West 443 510 38,000  Level Denver Center
08:37PM 38.2922 -110.7153 274° West 440 506 38,000  Level Salt Lake Center
08:38PM 38.2972 -110.8881 272° West 437 503 38,000  Level Salt Lake Center
08:39PM 38.3044 -111.0211 274° West 436 502 38,000  Level Salt Lake Center
08:40PM 38.3108 -111.2069 273° West 440 506 38,000  Level Salt Lake Center
08:41PM 38.3156 -111.3603 272° West 437 503 38,000  Level Salt Lake Center
08:42PM 38.3192 -111.5122 272° West 432 497 38,000  Level Salt Lake Center
08:43PM 38.3244 -111.6675 273° West 437 503 38,000  Level Salt Lake Center
08:44PM 38.3289 -111.8222 272° West 439 505 38,000  Level Salt Lake Center
08:45PM 38.3339 -111.9778 272° West 441 507 38,100  Climbing Salt Lake Center
08:46PM 38.3397 -112.1333 273° West 442 509 38,000 -60 Descending Salt Lake Center
08:47PM 38.3442 -112.3192 272° West 439 505 38,000  Level Salt Lake Center
08:48PM 38.3483 -112.4736 272° West 439 505 38,000  Level Salt Lake Center
08:50PM 38.3528 -112.6278 272° West 439 505 38,000  Level Salt Lake Center
08:51PM 38.3558 -112.7797 272° West 435 501 38,000  Level Salt Lake Center
08:52PM 38.3589 -112.9317 272° West 433 498 38,000  Level Salt Lake Center
08:53PM 38.3567 -113.0825 269° West 432 497 38,000  Level Salt Lake Center
08:54PM 38.3425 -113.2639 264° West 432 497 38,000  Level Salt Lake Center
08:55PM 38.3308 -113.4142 264° West 430 495 38,000  Level Salt Lake Center
08:56PM 38.3189 -113.5653 264° West 432 497 38,000  Level Salt Lake Center
08:57PM 38.3072 -113.7158 264° West 431 496 38,000  Level Salt Lake Center
08:58PM 38.2953 -113.8692 264° West 434 499 38,000  Level Salt Lake Center
08:59PM 38.2828 -114.0189 264° West 430 495 38,000  Level Salt Lake Center
09:00PM 38.2711 -114.1672 264° West 425 489 38,000  Level Salt Lake Center
09:01PM 38.2567 -114.3175 263° West 428 493 38,000  Level Salt Lake Center
09:02PM 38.3022 -114.4822 289° West 418 481 38,000  Level Salt Lake Center
09:03PM 38.3833 -114.5883 314° West 417 480 38,000  Level Salt Lake Center
09:04PM 38.4578 -114.7000 310° West 416 479 38,000 -420 Level Salt Lake Center
09:05PM 38.5336 -114.8119 311° West 416 479 37,200 -840 Descending Salt Lake Center
09:06PM 38.6067 -114.9267 309° West 416 479 36,300 -600 Descending Salt Lake Center
09:07PM 38.6783 -115.0392 309° West 411 473 36,000 -180 Descending Salt Lake Center
09:08PM 38.6947 -115.1786 279° West 422 486 36,000  Level Salt Lake Center
09:09PM 38.6522 -115.3272 250° West 445 512 36,000  Level Salt Lake Center
09:10PM 38.6100 -115.4997 253° West 441 507 36,000  Level Salt Lake Center
09:11PM 38.5728 -115.6514 253° West 446 513 36,000  Level Salt Lake Center
09:12PM 38.5322 -115.8031 251° West 451 519 36,000  Level Salt Lake Center
09:13PM 38.4942 -115.9550 252° West 451 519 36,000  Level Salt Lake Center
09:14PM 38.4528 -116.1089 251° West 456 525 36,000  Level Salt Lake Center
09:15PM 38.4208 -116.2286 251° West 449 517 36,000  Level Oakland Center
09:16PM 38.3742 -116.4075 252° West 446 513 36,000  Level Oakland Center
09:17PM 38.3347 -116.5581 252° West 447 514 36,000  Level Oakland Center
09:18PM 38.2942 -116.7050 251° West 443 510 36,000  Level Oakland Center
09:19PM 38.2467 -116.8836 251° West 443 510 36,000  Level Salt Lake Center
09:20PM 38.2078 -117.0294 251° West 439 505 36,000  Level Salt Lake Center
09:21PM 38.1781 -117.1386 251° West 437 503 36,000  Level Oakland Center
09:22PM 38.1381 -117.2839 251° West 437 503 36,000  Level Oakland Center
09:23PM 38.0911 -117.4547 251° West 441 507 36,000  Level Oakland Center
09:24PM 38.0506 -117.6003 251° West 440 506 36,000  Level Oakland Center
09:25PM 38.0103 -117.7450 251° West 436 502 36,000  Level Oakland Center
09:26PM 37.9897 -117.8950 260° West 430 495 36,000  Level Oakland Center
09:27PM 37.9739 -118.0453 262° West 432 497 36,000  Level Oakland Center
09:28PM 37.9575 -118.1967 262° West 432 497 36,000  Level Oakland Center
09:29PM 37.9414 -118.3478 262° West 433 498 36,000  Level Oakland Center
09:30PM 37.9206 -118.5286 262° West 433 498 36,000  Level Oakland Center
09:31PM 37.9036 -118.6803 262° West 435 501 36,000  Level Oakland Center
09:32PM 37.8881 -118.8314 263° West 432 497 36,000  Level Oakland Center
09:33PM 37.8717 -118.9817 262° West 432 497 36,000  Level Oakland Center
09:34PM 37.8544 -119.1214 261° West 429 494 36,000  Level Oakland Center
09:35PM 37.8369 -119.2722 262° West 432 497 36,000 -180 Level Oakland Center
09:36PM 37.8186 -119.4244 261° West 436 502 35,700 -780 Descending Oakland Center
09:37PM 37.7983 -119.6047 262° West 432 497 34,500 -1,080 Descending Oakland Center
09:38PM 37.7789 -119.7606 261° West 446 513 33,600 -960 Descending Oakland Center
09:39PM 37.7606 -119.9156 262° West 447 514 32,600 -960 Descending Oakland Center
09:41PM 37.7411 -120.0731 261° West 452 520 31,700 -960 Descending Oakland Center
09:42PM 37.7217 -120.2294 261° West 451 519 30,700 -1,320 Descending Oakland Center
09:43PM 37.7022 -120.3828 261° West 445 512 29,100 -1,920 Descending Oakland Center
09:44PM 37.6825 -120.5317 261° West 433 498 26,800 -2,280 Descending Oakland Center
09:45PM 37.6650 -120.6742 261° West 417 480 24,500 -2,400 Descending Oakland Center
09:45PM 37.6500 -120.7333 252° West 414 476 23,600 -2,280 Descending Northern Cal TRACON
09:46PM 37.6333 -120.8667 261° West 402 463 21,600 -2,040 Descending Northern Cal TRACON
09:47PM 37.6167 -121.0167 262° West 402 463 19,400 -1,860 Descending Northern Cal TRACON
09:48PM 37.6000 -121.1500 261° West 386 444 17,800 -2,100 Descending Northern Cal TRACON
09:49PM 37.5833 -121.2833 261° West 378 435 15,300 -2,160 Descending Northern Cal TRACON
09:50PM 37.5833 -121.4000 270° West 363 418 13,500 -1,980 Descending Northern Cal TRACON
09:51PM 37.5667 -121.5167 260° West 350 403 11,600 -1,380 Descending Northern Cal TRACON
09:52PM 37.5333 -121.6333 250° West 323 372 10,900 -900 Descending Northern Cal TRACON
09:53PM 37.5167 -121.7333 258° West 301 346 9,800 -1,020 Descending Northern Cal TRACON
09:54PM 37.5000 -121.8167 256° West 280 322 8,900 -960 Descending Northern Cal TRACON
09:55PM 37.4833 -121.9167 258° West 237 273 7,900 -1,200 Descending Northern Cal TRACON
09:56PM 37.5000 -121.9833 288° West 222 255 6,500 -1,380 Descending Northern Cal TRACON
09:57PM 37.5167 -122.0500 288° West 212 244 5,300 -1,320 Descending Northern Cal TRACON
09:58PM 37.5333 -122.1167 288° West 169 194 4,100 -1,260 Descending Northern Cal TRACON
09:59PM 37.5500 -122.1667 293° West 157 181 2,800 -1,020 Descending Northern Cal TRACON
10:00PM 37.5667 -122.2167 293° West 163 188 2,100 -780 Descending Northern Cal TRACON
10:01PM 37.5831 -122.2711 291° West 161 185 1,300 -720 Descending Oakland Center
10:02PM 37.5936 -122.3183 286° West 152 175 700 -600 Descending Oakland Center
10:03PM 37.6075 -122.3483 300° West 139 160 200 -540 Descending Oakland Center
10:05PM 37.6167 -122.3667 322° Northwest  Level FlightAware Approximate
10:12PM 37.6191 -122.3752 322° Northwest  Level Estimated